Stations météo

réclame
Mon MeteoGroup
Wilhelminadorp aws, Pays-Bas (6323): Température de l'air & dewpoint: 14.04.2018 22:00:00 - 20.04.2018 22:00:00 (CEST)Wilhelminadorp aws, Pays-Bas (6323): Température de l'air 5cm & Température de l'air -5cm: 14.04.2018 22:00:00 - 20.04.2018 22:00:00 (CEST)Wilhelminadorp aws, Pays-Bas (6323): Température de l'air -20cm & Température de l'air -100cm: 14.04.2018 22:00:00 - 20.04.2018 22:00:00 (CEST)Wilhelminadorp aws, Pays-Bas (6323): Vitesse du vent & gusts: 14.04.2018 22:00:00 - 20.04.2018 22:00:00 (CEST)Wilhelminadorp aws, Pays-Bas (6323): Direction du vent: 14.04.2018 22:00:00 - 20.04.2018 22:00:00 (CEST)Wilhelminadorp aws, Pays-Bas (6323): reduced air pressure: 14.04.2018 22:00:00 - 20.04.2018 22:00:00 (CEST)Wilhelminadorp aws, Pays-Bas (6323): Quantités de précipitations: 14.04.2018 22:00:00 - 20.04.2018 22:00:00 (CEST)
Date & Time tt [°C] td [°C] tt 5cm [°C] tt -5cm [°C] tt -20cm [°C] tt -100cm [°C] ff [km/h] ff [knt] fx [km/h] fx [knt] dd ppp [hPa] rr [mm]
20.04.2018 22:00:00 10,2 8,4 10,0 16,7 15,7 10,1 16 9 - - NNW 1023,2 -
20.04.2018 21:00:00 11,5 8,6 11,3 17,1 15,7 10,1 14 8 18 10 NNW 1023,0 0,0
20.04.2018 20:00:00 15,3 11,2 15,2 17,4 15,6 10,0 7 4 14 8 NW 1022,5 0,0
20.04.2018 19:00:00 16,5 11,6 16,9 17,6 15,5 10,0 14 8 22 12 NW 1022,7 0,0
20.04.2018 18:00:00 17,2 11,8 18,1 17,6 15,2 10,0 18 10 25 14 NW 1022,8 0,0
20.04.2018 17:00:00 20,1 12,7 21,0 17,3 14,9 10,0 18 10 25 14 NW 1022,7 0,0
20.04.2018 16:00:00 23,7 12,0 24,9 16,9 14,6 10,0 11 6 22 12 W 1022,7 0,0
20.04.2018 15:00:00 23,4 11,0 24,5 16,3 14,3 10,0 14 8 22 12 WNW 1023,1 0,0
20.04.2018 14:00:00 23,5 10,4 24,7 15,8 14,0 10,0 18 10 25 14 W 1023,2 0,0
20.04.2018 13:00:00 23,7 16,1 25,1 15,1 13,8 9,9 14 8 25 14 WNW 1023,1 0,0
20.04.2018 12:00:00 22,8 16,0 24,0 14,5 13,6 9,9 14 8 22 12 W 1023,0 0,0
20.04.2018 11:00:00 22,0 14,1 23,1 14,0 13,6 9,9 7 4 14 8 W 1022,8 0,0
20.04.2018 10:00:00 19,9 13,8 20,7 13,6 13,6 9,9 7 4 18 10 SW 1022,6 0,0
20.04.2018 09:00:00 18,4 12,9 18,3 13,5 13,7 9,9 7 4 14 8 SSW 1022,6 0,0
20.04.2018 08:00:00 14,5 12,3 13,1 13,6 13,9 9,9 4 2 7 4 WSW 1022,7 0,0
20.04.2018 07:00:00 13,0 10,3 11,2 13,8 14,0 9,9 0 0 14 8 N 1022,5 0,0
20.04.2018 06:00:00 13,0 11,1 9,8 14,0 14,1 9,9 7 4 7 4 S 1022,4 0,0
20.04.2018 05:00:00 13,6 11,2 10,1 14,2 14,3 9,9 4 2 7 4 S 1022,6 0,0
20.04.2018 04:00:00 14,0 11,8 10,5 14,5 14,4 9,8 4 2 7 4 SSE 1022,8 0,0
20.04.2018 03:00:00 15,0 11,3 12,2 14,7 14,6 9,8 4 2 14 8 S 1023,0 0,0
20.04.2018 02:00:00 15,6 11,1 11,6 15,0 14,7 9,8 11 6 14 8 SSE 1023,4 0,0
20.04.2018 01:00:00 15,8 11,2 12,5 15,3 14,9 9,8 7 4 11 6 SSE 1023,5 0,0
20.04.2018 00:00:00 16,3 12,4 12,7 15,6 15,0 9,8 7 4 7 4 ESE 1023,5 0,0
19.04.2018 23:00:00 18,6 11,2 14,2 16,0 15,1 9,8 4 2 11 6 SE 1023,9 0,0
19.04.2018 22:00:00 18,0 11,9 14,4 16,4 15,1 9,8 4 2 11 6 E 1023,9 0,0
19.04.2018 21:00:00 18,4 11,7 16,4 16,7 15,0 9,8 7 4 14 8 NE 1023,5 0,0
19.04.2018 20:00:00 21,1 12,1 20,0 16,9 14,9 9,7 11 6 22 12 N 1023,2 0,0
19.04.2018 19:00:00 26,5 8,7 25,7 17,0 14,7 9,7 11 6 22 12 SW 1023,2 0,0
19.04.2018 18:00:00 27,2 8,3 27,2 16,8 14,4 9,7 11 6 22 12 SSW 1023,4 0,0
19.04.2018 17:00:00 27,3 9,1 27,8 16,5 14,1 9,7 11 6 29 16 SSW 1023,8 0,0
19.04.2018 16:00:00 27,0 8,5 27,3 16,0 13,8 9,7 14 8 25 14 SSE 1024,2 0,0
19.04.2018 15:00:00 25,8 9,3 26,9 15,4 13,5 9,7 11 6 22 12 SSE 1024,7 0,0
19.04.2018 14:00:00 25,1 8,9 26,4 14,8 13,2 9,7 14 8 22 12 SE 1025,0 0,0
19.04.2018 13:00:00 24,1 9,2 25,6 14,1 13,0 9,7 14 8 25 14 SSE 1025,4 0,0
19.04.2018 12:00:00 23,1 9,5 23,6 13,6 12,9 9,7 18 10 25 14 SSE 1025,7 0,0
19.04.2018 11:00:00 21,4 8,1 21,7 13,2 12,9 9,7 18 10 25 14 SE 1025,8 0,0
19.04.2018 10:00:00 20,2 10,0 20,2 12,9 12,9 9,6 11 6 18 10 SE 1026,0 0,0
19.04.2018 09:00:00 17,2 9,4 17,3 12,8 13,0 9,6 7 4 11 6 ESE 1026,2 0,0
19.04.2018 08:00:00 13,4 10,1 12,4 12,9 13,2 9,6 7 4 11 6 ENE 1026,1 0,0
19.04.2018 07:00:00 11,4 8,9 8,8 13,1 13,3 9,6 7 4 11 6 E 1025,7 0,0
19.04.2018 06:00:00 11,6 9,0 9,4 13,4 13,5 9,6 7 4 11 6 ESE 1025,8 0,0
19.04.2018 05:00:00 13,6 9,2 11,6 13,6 13,6 9,6 11 6 14 8 ESE 1026,1 0,0
19.04.2018 04:00:00 14,4 9,7 13,0 13,8 13,7 9,6 11 6 18 10 ESE 1026,3 0,0
19.04.2018 03:00:00 15,3 9,8 13,8 14,1 13,8 9,6 14 8 22 12 ESE 1026,5 0,0
19.04.2018 02:00:00 15,9 10,1 14,5 14,3 13,9 9,6 14 8 22 12 ESE 1027,0 0,0
19.04.2018 01:00:00 16,7 10,0 14,7 14,6 14,1 9,6 14 8 18 10 E 1027,4 0,0
19.04.2018 00:00:00 15,7 10,6 14,0 14,8 14,1 9,6 11 6 14 8 E 1027,7 0,0
18.04.2018 23:00:00 16,2 10,8 14,8 15,1 14,2 9,6 14 8 22 12 E 1027,8 0,0
18.04.2018 22:00:00 17,3 11,0 15,9 15,5 14,2 9,6 14 8 18 10 E 1027,7 0,0
18.04.2018 21:00:00 18,6 10,7 17,0 15,8 14,1 9,5 11 6 18 10 ENE 1027,4 0,0
18.04.2018 20:00:00 21,3 11,5 19,9 16,0 14,0 9,5 7 4 14 8 ENE 1027,5 0,0
18.04.2018 19:00:00 22,7 9,7 22,5 16,0 13,8 9,5 4 2 14 8 NNE 1027,9 0,0
18.04.2018 18:00:00 23,1 9,3 23,3 15,9 13,5 9,5 11 6 22 12 NE 1028,1 0,0
18.04.2018 17:00:00 24,0 8,7 24,2 15,6 13,2 9,5 14 8 22 12 E 1028,5 0,0
18.04.2018 16:00:00 23,7 8,9 24,4 15,1 12,8 9,5 14 8 22 12 ENE 1029,1 0,0
18.04.2018 15:00:00 23,7 8,6 24,6 14,5 12,5 9,5 11 6 22 12 ESE 1029,7 0,0
18.04.2018 14:00:00 22,7 9,4 24,1 13,8 12,2 9,5 14 8 22 12 SSE 1030,2 0,0
18.04.2018 13:00:00 21,9 9,2 23,2 13,2 11,9 9,5 11 6 22 12 SSE 1030,6 0,0
18.04.2018 12:00:00 20,2 10,3 22,1 12,4 11,8 9,5 7 4 11 6 E 1030,9 0,0
18.04.2018 11:00:00 18,9 10,7 20,3 11,9 11,7 9,5 4 2 11 6 SE 1031,0 0,0
18.04.2018 10:00:00 16,9 9,8 18,2 11,6 11,7 9,5 7 4 14 8 SSE 1030,9 0,0
18.04.2018 09:00:00 15,3 8,5 15,8 11,5 11,8 9,5 7 4 14 8 S 1030,3 0,0
18.04.2018 08:00:00 12,7 9,0 11,6 11,5 11,9 9,5 7 4 14 8 S 1029,8 0,0
18.04.2018 07:00:00 12,0 7,6 10,5 11,7 12,0 9,5 11 6 18 10 SSW 1029,1 0,0
18.04.2018 06:00:00 12,1 7,5 10,3 11,8 12,1 9,4 11 6 18 10 SSW 1028,8 0,0
18.04.2018 05:00:00 13,1 7,5 11,1 12,0 12,3 9,4 14 8 18 10 S 1028,5 0,0
18.04.2018 04:00:00 11,5 7,4 9,3 12,2 12,4 9,4 11 6 14 8 SSE 1028,0 0,0
18.04.2018 03:00:00 11,9 7,6 9,8 12,4 12,5 9,4 11 6 14 8 SSE 1027,9 0,0
18.04.2018 02:00:00 12,6 7,8 10,1 12,6 12,6 9,4 11 6 14 8 SSE 1027,6 0,0
18.04.2018 01:00:00 12,4 8,1 10,4 12,9 12,7 9,4 7 4 14 8 SSE 1027,4 0,0
18.04.2018 00:00:00 12,9 8,2 10,2 13,1 12,8 9,4 11 6 14 8 S 1027,0 0,0
17.04.2018 23:00:00 14,2 8,2 11,4 13,4 12,9 9,4 7 4 14 8 SSE 1026,7 0,0
17.04.2018 22:00:00 15,9 7,7 13,3 13,7 12,9 9,4 11 6 14 8 S 1026,3 0,0
17.04.2018 21:00:00 17,0 8,1 14,8 14,0 12,8 9,4 11 6 14 8 S 1025,6 0,0
17.04.2018 20:00:00 18,5 8,6 17,4 14,1 12,7 9,4 11 6 22 12 SSW 1025,0 0,0
17.04.2018 19:00:00 19,5 8,2 19,3 14,1 12,5 9,4 14 8 29 16 S 1024,4 0,0
17.04.2018 18:00:00 20,0 7,3 20,7 13,9 12,3 9,4 18 10 32 18 SSW 1024,7 0,0
17.04.2018 17:00:00 19,7 8,2 20,8 13,6 12,1 9,3 22 12 36 19 SSW 1024,6 0,0
17.04.2018 16:00:00 19,7 8,2 20,8 13,2 11,8 9,3 22 12 36 19 SW 1024,2 0,0
17.04.2018 15:00:00 18,9 8,1 20,4 12,7 11,6 9,3 22 12 36 19 SSW 1024,1 0,0
17.04.2018 14:00:00 18,4 8,0 19,7 12,3 11,4 9,3 22 12 40 21 SSW 1024,0 0,0
17.04.2018 13:00:00 17,0 7,3 17,5 11,8 11,3 9,3 25 14 40 21 SSW 1024,3 0,0
17.04.2018 12:00:00 16,7 7,6 17,9 11,4 11,2 9,3 25 14 36 19 SSW 1024,2 0,0
17.04.2018 11:00:00 15,5 8,0 16,0 11,1 11,2 9,3 22 12 36 19 S 1024,2 0,0
17.04.2018 10:00:00 13,8 7,7 13,6 10,9 11,3 9,3 22 12 29 16 S 1023,5 0,0
17.04.2018 09:00:00 12,1 7,5 12,3 10,9 11,3 9,3 14 8 22 12 S 1023,7 0,0
17.04.2018 08:00:00 9,7 7,1 8,9 10,9 11,4 9,3 14 8 22 12 SSE 1022,7 0,0
17.04.2018 07:00:00 9,1 6,4 8,1 11,0 11,6 9,3 14 8 18 10 SSE 1022,7 0,0
17.04.2018 06:00:00 9,3 6,3 8,4 11,2 11,7 9,3 18 10 25 14 SSE 1021,8 0,0
17.04.2018 05:00:00 9,0 6,4 8,1 11,3 11,8 9,3 14 8 22 12 SSE 1021,5 0,0
17.04.2018 04:00:00 8,8 6,0 7,6 11,5 11,9 9,2 14 8 18 10 SE 1021,7 0,0
17.04.2018 03:00:00 8,3 5,8 6,7 11,7 12,1 9,2 7 4 14 8 SSE 1021,6 0,0
17.04.2018 02:00:00 8,2 5,4 6,6 11,9 12,2 9,2 11 6 14 8 SSE 1021,4 0,0
17.04.2018 01:00:00 7,8 5,6 6,5 12,1 12,4 9,2 7 4 14 8 SSE 1021,1 0,0
17.04.2018 00:00:00 7,4 5,4 5,8 12,4 12,5 9,2 7 4 7 4 SSE 1020,8 0,0
16.04.2018 23:00:00 8,8 5,2 6,8 12,7 12,6 9,2 4 2 11 6 S 1020,5 0,0
16.04.2018 22:00:00 9,1 5,8 7,3 13,1 12,6 9,2 4 2 11 6 SSW 1020,1 0,0
16.04.2018 21:00:00 10,4 6,0 9,5 13,3 12,6 9,2 11 6 22 12 W 1019,5 0,0
16.04.2018 20:00:00 12,1 6,6 11,8 13,5 12,6 9,2 11 6 25 14 W 1018,7 0,0
16.04.2018 19:00:00 13,2 5,7 13,6 13,7 12,5 9,2 22 12 29 16 W 1018,0 0,0
16.04.2018 18:00:00 13,9 7,4 15,3 13,6 12,3 9,1 22 12 29 16 W 1017,8 0,0
16.04.2018 17:00:00 13,9 8,2 15,5 13,4 12,2 9,1 25 14 32 18 W 1017,6 0,0
16.04.2018 16:00:00 14,2 8,9 15,4 13,1 12,0 9,1 18 10 32 18 W 1017,2 0,0
16.04.2018 15:00:00 14,1 9,2 15,8 12,8 11,8 9,1 18 10 29 16 W 1017,0 0,0
16.04.2018 14:00:00 14,5 9,4 15,3 12,4 11,7 9,1 18 10 32 18 SW 1016,5 0,0
16.04.2018 13:00:00 13,7 8,6 13,9 12,1 11,6 9,1 22 12 32 18 WSW 1016,2 0,0
16.04.2018 12:00:00 12,9 9,5 13,6 11,8 11,6 9,1 18 10 29 16 WSW 1015,9 0,0
16.04.2018 11:00:00 11,8 8,9 12,5 11,6 11,6 9,1 22 12 29 16 WSW 1015,5 0,0
16.04.2018 10:00:00 10,9 8,8 11,2 11,5 11,7 9,1 18 10 25 14 WSW 1014,9 0,0
16.04.2018 09:00:00 10,7 8,9 10,9 11,5 11,8 9,1 14 8 22 12 SW 1014,1 0,0
16.04.2018 08:00:00 9,4 8,2 9,0 11,6 11,9 9,1 11 6 25 14 SW 1013,3 0,0
16.04.2018 07:00:00 9,1 7,9 8,4 11,8 12,0 9,1 14 8 22 12 WSW 1012,7 0,0
16.04.2018 06:00:00 9,8 8,6 9,2 11,9 12,1 9,1 7 4 14 8 SW 1012,2 0,0
16.04.2018 05:00:00 9,2 8,4 8,5 12,1 12,2 9,0 11 6 14 8 WSW 1011,7 0,0
16.04.2018 04:00:00 10,1 9,4 9,5 12,3 12,2 9,0 11 6 14 8 SSW 1011,2 0,0
16.04.2018 03:00:00 10,7 9,6 10,0 12,5 12,3 9,0 11 6 14 8 SSW 1011,0 0,0
16.04.2018 02:00:00 11,3 9,9 10,9 12,7 12,4 9,0 7 4 14 8 S 1010,8 0,0
16.04.2018 01:00:00 11,5 9,5 11,1 12,8 12,4 9,0 7 4 18 10 S 1010,4 0,1
16.04.2018 00:00:00 11,9 9,2 11,5 12,9 12,4 9,0 11 6 32 18 SSW 1010,8 0,5
15.04.2018 23:00:00 13,5 9,7 12,9 13,1 12,5 9,0 18 10 29 16 S 1010,5 0,2
15.04.2018 22:00:00 14,0 10,3 13,1 13,2 12,4 9,0 7 4 11 6 S 1010,3 0,0
15.04.2018 21:00:00 13,9 11,0 13,4 13,4 12,4 9,0 7 4 18 10 SE 1010,2 0,1
15.04.2018 20:00:00 14,4 12,0 14,0 13,4 12,3 9,0 7 4 7 4 ESE 1009,9 0,0
15.04.2018 19:00:00 14,8 12,2 15,2 13,4 12,2 9,0 4 2 18 10 E 1009,7 0,1
15.04.2018 18:00:00 14,5 12,4 15,0 13,4 12,1 9,0 4 2 11 6 NNE 1009,8 0,0
15.04.2018 17:00:00 14,7 12,1 15,0 13,2 11,9 8,9 11 6 29 16 NW 1010,3 0,0
15.04.2018 16:00:00 16,2 11,8 16,8 13,1 11,7 8,9 14 8 25 14 W 1010,4 0,0
15.04.2018 15:00:00 17,2 11,8 18,7 12,7 11,5 8,9 14 8 29 16 SSW 1010,6 0,0
15.04.2018 14:00:00 16,1 11,0 16,7 12,4 11,4 8,9 14 8 22 12 SSW 1011,0 0,0
15.04.2018 13:00:00 15,9 11,7 16,9 12,0 11,3 8,9 11 6 22 12 SSW 1011,3 0,0
15.04.2018 12:00:00 15,0 11,5 15,8 11,7 11,2 8,9 11 6 18 10 SSW 1011,5 0,0
15.04.2018 11:00:00 13,3 11,2 14,1 11,4 11,2 8,9 11 6 22 12 SSW 1011,9 0,0
15.04.2018 10:00:00 12,7 11,2 12,8 11,2 11,2 8,9 11 6 22 12 S 1012,4 0,0
15.04.2018 09:00:00 12,4 11,3 12,7 11,2 11,2 8,9 11 6 14 8 S 1012,5 0,0
15.04.2018 08:00:00 11,3 10,6 10,8 11,3 11,3 8,9 11 6 18 10 SSE 1012,9 0,0
15.04.2018 07:00:00 11,0 10,5 10,2 11,4 11,3 8,9 11 6 14 8 SE 1012,9 0,0
15.04.2018 06:00:00 10,7 10,6 10,3 11,4 11,4 8,9 4 2 11 6 ESE 1013,4 0,0
15.04.2018 05:00:00 10,9 10,8 10,7 11,5 11,4 8,9 11 6 14 8 ESE 1014,0 0,0
15.04.2018 04:00:00 10,8 10,5 10,6 11,6 11,5 8,9 11 6 14 8 ESE 1014,3 0,5
15.04.2018 03:00:00 10,4 10,2 10,4 11,7 11,6 8,9 7 4 14 8 E 1015,0 0,6
15.04.2018 02:00:00 10,3 10,1 10,3 11,8 11,6 8,9 11 6 14 8 E 1015,9 2,3
15.04.2018 01:00:00 10,3 9,9 10,3 11,9 11,7 8,9 7 4 11 6 ENE 1016,7 2,9
15.04.2018 00:00:00 10,5 9,8 10,5 12,1 11,7 8,9 7 4 11 6 NE 1017,1 3,4
14.04.2018 23:00:00 11,1 9,4 10,7 12,2 11,7 8,9 4 2 14 8 E 1017,4 0,5
14.04.2018 22:00:00 11,3 8,4 10,9 12,4 11,8 8,9 11 6 22 12 NE 1017,2 0,0

tt = Température de l'air
td = dewpoint
tt 5cm = Température de l'air 5cm
tt -5cm = Température de l'air -5cm
tt -20cm = Température de l'air -20cm
tt -100cm = Température de l'air -100cm
ff = Vitesse du vent
fx = gusts
dd = Direction du vent
ppp = reduced air pressure
rr = Quantités de précipitations

stations d'obs. à proximité